Terminal Aerodrome Forecast
Issued by NWS

Home | Current Version | Previous Version | Text Only | Print | Product List | Glossary On
Versions: 1 2 3 4 5 6 7 8 9 10 11 12 13 14
000
FTUS43 KGRB 011138
TAFAUW
TAF
KAUW 011138Z 0112/0212 29004KT P6SM SCT080
     FM011500 28011G17KT P6SM SCT060
     FM020000 24005KT P6SM SCT100
     FM020400 21005KT P6SM VCSH BKN080 WS010/24040KT PROB30
      0206/0212 5SM -SHRA BR BKN040=

USA.gov is the U.S. government's official web portal to all federal, state and local government web resources and services.